Time;durP1;ratioP1;P1;durP2;ratioP2;P2;SDS_P1;SDS_P2;PMS_P1;PMS_P2;Temp;Humidity;BMP_temperature;BMP_pressure;BME280_temperature;BME280_humidity;BME280_pressure;Samples;Min_cycle;Max_cycle;Signal;HPM_P1;HPM_P2
2021/06/14 00:00:49;;;;;;;5.47;2.83;;;17.50;83.10;;;;;;2047242;29;20023;-70
2021/06/14 00:01:53;;;;;;;3.85;3.25;;;17.50;82.30;;;;;;2046718;28;20023;-70
2021/06/14 00:02:54;;;;;;;5.70;3.03;;;17.50;82.70;;;;;;2047621;28;20031;-70
2021/06/14 00:03:54;;;;;;;5.40;3.20;;;17.50;83.90;;;;;;2055298;28;20054;-70
2021/06/14 00:04:55;;;;;;;4.00;2.78;;;17.40;82.30;;;;;;2055157;28;20027;-70
2021/06/14 00:05:55;;;;;;;3.42;2.97;;;17.40;83.70;;;;;;2055210;28;20489;-70
2021/06/14 00:06:56;;;;;;;4.65;3.40;;;17.40;84.40;;;;;;2055616;28;20506;-70
2021/06/14 00:07:57;;;;;;;4.95;3.08;;;17.40;83.90;;;;;;2054996;28;20097;-70
2021/06/14 00:08:58;;;;;;;4.75;3.28;;;17.40;84.50;;;;;;2055547;28;20407;-70
2021/06/14 00:09:59;;;;;;;4.60;3.20;;;17.40;85.50;;;;;;2055149;28;20054;-71
2021/06/14 00:11:00;;;;;;;3.13;2.80;;;17.40;86.10;;;;;;2055260;28;20039;-71
2021/06/14 00:12:01;;;;;;;3.50;3.10;;;17.40;85.40;;;;;;2054594;28;20066;-70
2021/06/14 00:13:04;;;;;;;3.60;2.60;;;17.30;85.00;;;;;;2055281;28;20027;-71
2021/06/14 00:14:05;;;;;;;6.00;3.40;;;17.30;84.40;;;;;;2054041;28;20031;-71
2021/06/14 00:15:07;;;;;;;4.78;3.40;;;17.30;84.40;;;;;;2047269;28;20027;-71
2021/06/14 00:16:08;;;;;;;5.18;2.97;;;17.30;85.10;;;;;;2051220;28;20076;-71
2021/06/14 00:17:09;;;;;;;5.35;3.50;;;17.30;84.10;;;;;;2055599;28;20500;-70
2021/06/14 00:18:10;;;;;;;4.82;3.10;;;17.30;84.50;;;;;;2054987;28;20382;-70
2021/06/14 00:19:10;;;;;;;6.97;3.10;;;17.20;85.10;;;;;;2055081;28;20023;-70
2021/06/14 00:20:13;;;;;;;3.97;3.00;;;17.20;86.20;;;;;;2055168;28;20425;-70
2021/06/14 00:21:13;;;;;;;3.30;3.00;;;17.20;86.10;;;;;;2055211;28;20441;-70
2021/06/14 00:22:16;;;;;;;7.47;3.20;;;17.20;85.20;;;;;;2053841;28;20027;-70
2021/06/14 00:23:16;;;;;;;3.47;2.60;;;17.20;86.40;;;;;;2054357;28;20130;-70
2021/06/14 00:24:17;;;;;;;3.88;3.28;;;17.20;87.80;;;;;;2049896;28;20034;-70
2021/06/14 00:25:22;;;;;;;3.63;3.33;;;17.10;88.30;;;;;;2047132;28;20023;-70
2021/06/14 00:26:23;;;;;;;5.05;3.47;;;17.10;87.60;;;;;;2047009;29;20076;-71
2021/06/14 00:27:23;;;;;;;4.72;3.45;;;17.10;87.60;;;;;;2050193;28;20084;-70
2021/06/14 00:28:25;;;;;;;4.75;3.28;;;17.10;86.80;;;;;;2054694;28;20019;-70
2021/06/14 00:29:25;;;;;;;6.68;2.97;;;17.10;87.20;;;;;;2055104;28;20019;-70
2021/06/14 00:30:33;;;;;;;5.63;3.67;;;17.10;86.70;;;;;;2054958;28;20055;-71
2021/06/14 00:31:33;;;;;;;5.57;3.53;;;17.00;89.30;;;;;;2054504;28;20110;-71
2021/06/14 00:32:34;;;;;;;4.55;2.60;;;17.00;89.70;;;;;;2054737;28;20019;-70
2021/06/14 00:33:36;;;;;;;5.53;3.67;;;17.00;88.60;;;;;;2053405;28;20091;-70
2021/06/14 00:34:37;;;;;;;5.25;2.80;;;17.00;89.80;;;;;;2046371;28;20089;-70
2021/06/14 00:35:38;;;;;;;4.03;3.40;;;17.00;90.00;;;;;;2046469;29;20102;-70
2021/06/14 00:36:38;;;;;;;6.15;3.53;;;16.90;90.10;;;;;;2047262;29;20024;-70
2021/06/14 00:37:39;;;;;;;6.20;3.53;;;16.90;90.60;;;;;;2047066;29;20475;-71
2021/06/14 00:38:40;;;;;;;4.97;3.60;;;16.90;90.70;;;;;;2046618;28;20023;-71
2021/06/14 00:39:40;;;;;;;6.38;3.13;;;16.90;91.00;;;;;;2047138;28;20043;-71
2021/06/14 00:40:42;;;;;;;3.67;3.38;;;16.90;90.30;;;;;;2046909;28;20027;-71
2021/06/14 00:41:42;;;;;;;4.22;3.10;;;16.90;90.90;;;;;;2046470;29;20035;-70
2021/06/14 00:42:44;;;;;;;3.30;3.00;;;16.90;90.60;;;;;;2053745;28;20470;-71
2021/06/14 00:43:46;;;;;;;5.22;3.22;;;16.80;90.70;;;;;;2054636;28;20026;-71
2021/06/14 00:44:47;;;;;;;4.40;3.20;;;16.80;90.90;;;;;;2054783;28;20383;-71
2021/06/14 00:45:50;;;;;;;4.53;3.38;;;16.70;91.70;;;;;;2055293;28;20079;-71
2021/06/14 00:46:50;;;;;;;4.93;3.20;;;16.80;91.50;;;;;;2054828;28;20066;-71
2021/06/14 00:47:51;;;;;;;3.97;3.40;;;16.70;91.60;;;;;;2055083;28;20037;-71
2021/06/14 00:48:51;;;;;;;4.55;3.15;;;16.70;90.30;;;;;;2054974;28;20059;-70
2021/06/14 00:49:52;;;;;;;4.85;3.10;;;16.60;91.40;;;;;;2055048;28;20023;-70
2021/06/14 00:50:58;;;;;;;4.72;3.15;;;16.70;91.20;;;;;;2054885;28;20023;-71
2021/06/14 00:51:59;;;;;;;5.85;3.50;;;16.60;91.70;;;;;;2054578;28;20045;-70
2021/06/14 00:52:59;;;;;;;4.97;3.05;;;16.60;91.10;;;;;;2054927;28;20470;-70
2021/06/14 00:54:01;;;;;;;4.63;2.72;;;16.60;90.50;;;;;;2054482;28;20088;-70
2021/06/14 00:55:02;;;;;;;4.82;3.67;;;16.60;91.40;;;;;;2054611;28;20027;-70
2021/06/14 00:56:09;;;;;;;6.57;3.70;;;16.60;91.80;;;;;;2054178;28;20023;-70
2021/06/14 00:57:10;;;;;;;5.95;3.35;;;16.50;92.00;;;;;;2046402;28;20027;-70
2021/06/14 00:58:11;;;;;;;4.75;3.28;;;16.50;92.10;;;;;;2050255;28;20110;-70
2021/06/14 00:59:14;;;;;;;4.43;3.33;;;16.50;92.30;;;;;;2054992;28;20038;-71
2021/06/14 01:00:17;;;;;;;4.68;3.42;;;16.50;91.60;;;;;;2055415;28;20072;-71
2021/06/14 01:01:17;;;;;;;4.18;3.10;;;16.40;92.10;;;;;;2054802;28;20537;-71
2021/06/14 01:02:18;;;;;;;6.38;3.10;;;16.40;92.50;;;;;;2053506;28;20423;-70
2021/06/14 01:03:18;;;;;;;4.53;3.20;;;16.40;92.00;;;;;;2053877;28;20058;-70
2021/06/14 01:04:19;;;;;;;6.00;3.40;;;16.40;91.80;;;;;;2054824;28;20168;-70
2021/06/14 01:05:21;;;;;;;4.15;2.90;;;16.40;91.10;;;;;;2054913;28;20019;-70
2021/06/14 01:06:21;;;;;;;5.10;3.80;;;16.30;91.10;;;;;;2054921;28;20019;-70
2021/06/14 01:07:24;;;;;;;4.32;3.40;;;16.30;92.00;;;;;;2055203;28;20376;-70
2021/06/14 01:08:29;;;;;;;5.88;3.38;;;16.30;93.20;;;;;;2055155;28;20497;-71
2021/06/14 01:09:30;;;;;;;3.90;3.05;;;16.30;92.70;;;;;;2054730;28;20073;-71
2021/06/14 01:10:30;;;;;;;6.78;3.50;;;16.30;91.60;;;;;;2054490;28;20031;-70
2021/06/14 01:11:52;;;;;;;4.07;3.50;;;16.20;92.60;;;;;;2053198;28;20027;-70
2021/06/14 01:13:18;;;;;;;5.13;3.05;;;16.20;93.80;;;;;;2050527;28;20031;-70
2021/06/14 01:14:32;;;;;;;5.63;3.03;;;16.10;93.80;;;;;;2046819;28;20023;-70
2021/06/14 01:15:53;;;;;;;3.33;3.03;;;16.10;93.70;;;;;;2047024;29;20062;-71
2021/06/14 01:17:01;;;;;;;4.82;3.60;;;16.10;93.80;;;;;;2047177;29;20379;-71
2021/06/14 01:18:09;;;;;;;5.55;3.88;;;16.00;93.80;;;;;;2053669;28;20059;-71
2021/06/14 01:19:16;;;;;;;4.68;3.47;;;16.00;93.20;;;;;;2055044;28;20045;-70
2021/06/14 01:20:53;;;;;;;5.65;4.20;;;16.00;93.90;;;;;;2054971;28;20037;-70
2021/06/14 01:22:12;;;;;;;3.30;2.95;;;16.00;94.40;;;;;;2056777;28;20034;-70
2021/06/14 01:23:26;;;;;;;4.68;3.22;;;15.90;93.90;;;;;;2055970;28;20023;-70
2021/06/14 01:24:40;;;;;;;5.40;3.60;;;15.90;93.80;;;;;;2056155;28;20110;-70
2021/06/14 01:25:54;;;;;;;4.40;3.60;;;15.90;94.40;;;;;;2054752;28;20035;-70
2021/06/14 01:27:10;;;;;;;4.70;3.10;;;15.90;94.20;;;;;;2054734;28;20034;-70
2021/06/14 01:28:13;;;;;;;7.97;3.72;;;15.80;94.30;;;;;;2050873;28;20117;-71
2021/06/14 01:29:15;;;;;;;3.42;3.08;;;15.80;94.10;;;;;;2055797;28;20110;-71
2021/06/14 01:30:19;;;;;;;4.50;3.45;;;15.80;94.50;;;;;;2060985;28;20026;-70
2021/06/14 01:31:21;;;;;;;5.35;3.47;;;15.80;94.60;;;;;;2054677;28;20062;-70
2021/06/14 01:32:22;;;;;;;6.13;3.60;;;15.80;94.70;;;;;;2053880;28;20398;-70
2021/06/14 01:33:26;;;;;;;4.13;3.45;;;15.80;94.50;;;;;;2054546;28;20185;-71
2021/06/14 01:34:29;;;;;;;6.35;3.58;;;15.80;94.60;;;;;;2046634;28;20038;-71
2021/06/14 01:35:37;;;;;;;4.53;3.83;;;15.70;95.20;;;;;;2045633;28;20085;-71
2021/06/14 01:36:39;;;;;;;4.45;2.92;;;15.70;95.70;;;;;;2046638;28;20042;-70
2021/06/14 01:37:49;;;;;;;3.40;3.10;;;15.70;95.30;;;;;;2047084;29;20093;-70
2021/06/14 01:38:50;;;;;;;4.05;3.00;;;15.70;95.20;;;;;;2046579;28;20424;-70
2021/06/14 01:39:51;;;;;;;4.18;3.25;;;15.70;94.20;;;;;;2046584;29;20030;-70
2021/06/14 01:40:57;;;;;;;4.15;3.72;;;15.60;94.40;;;;;;2046597;28;20384;-70
2021/06/14 01:41:58;;;;;;;4.05;3.45;;;15.60;94.40;;;;;;2047351;28;20031;-70
2021/06/14 01:43:02;;;;;;;5.30;3.97;;;15.60;94.60;;;;;;2054581;28;20031;-70
2021/06/14 01:44:05;;;;;;;4.35;3.10;;;15.60;95.20;;;;;;2054281;28;20821;-70
2021/06/14 01:45:07;;;;;;;7.30;3.72;;;15.60;95.80;;;;;;2054381;28;20023;-70
2021/06/14 01:46:18;;;;;;;8.15;3.53;;;15.60;95.40;;;;;;2054788;28;20076;-70
2021/06/14 01:47:20;;;;;;;6.20;3.40;;;15.60;96.00;;;;;;2054722;28;20038;-70
2021/06/14 01:48:21;;;;;;;5.05;3.90;;;15.50;95.70;;;;;;2054870;28;20026;-70
2021/06/14 01:49:23;;;;;;;7.85;4.22;;;15.50;95.90;;;;;;2053706;28;20026;-71
2021/06/14 01:50:27;;;;;;;5.38;3.22;;;15.50;96.20;;;;;;2054640;28;20026;-70
2021/06/14 01:51:31;;;;;;;4.65;3.15;;;15.50;96.40;;;;;;2051914;28;20031;-70
2021/06/14 01:52:32;;;;;;;3.95;3.20;;;15.50;96.40;;;;;;2046485;28;20076;-70
2021/06/14 01:53:34;;;;;;;5.32;3.80;;;15.50;96.70;;;;;;2052294;28;20061;-70
2021/06/14 01:54:36;;;;;;;8.95;3.45;;;15.50;96.70;;;;;;2054290;28;20458;-71
2021/06/14 01:55:38;;;;;;;6.22;3.72;;;15.50;96.90;;;;;;2054532;28;20019;-70
2021/06/14 01:56:45;;;;;;;4.13;3.50;;;15.40;97.30;;;;;;2053973;28;20034;-70
2021/06/14 01:57:46;;;;;;;3.90;3.22;;;15.40;97.50;;;;;;2053885;28;20470;-70
2021/06/14 01:58:47;;;;;;;5.57;3.42;;;15.40;97.60;;;;;;2054885;28;20467;-70
2021/06/14 01:59:51;;;;;;;4.53;3.55;;;15.40;96.90;;;;;;2054469;28;20372;-70
2021/06/14 02:00:52;;;;;;;5.95;4.15;;;15.40;97.30;;;;;;2054977;28;20097;-70
2021/06/14 02:01:55;;;;;;;4.47;3.47;;;15.40;96.50;;;;;;2054765;28;20027;-71
2021/06/14 02:02:57;;;;;;;6.38;3.28;;;15.40;96.80;;;;;;2055632;28;20507;-70
2021/06/14 02:03:59;;;;;;;4.63;3.35;;;15.30;96.30;;;;;;2055729;28;20066;-70
2021/06/14 02:05:01;;;;;;;4.07;3.55;;;15.30;95.90;;;;;;2055914;28;20364;-70
2021/06/14 02:06:03;;;;;;;4.50;3.53;;;15.30;97.00;;;;;;2055676;28;20110;-70
2021/06/14 02:07:05;;;;;;;5.30;3.00;;;15.30;97.20;;;;;;2055883;28;20428;-70
2021/06/14 02:08:09;;;;;;;5.93;3.63;;;15.40;97.30;;;;;;2050437;28;20031;-70
2021/06/14 02:09:15;;;;;;;3.92;3.33;;;15.30;97.80;;;;;;2047829;28;20030;-70
2021/06/14 02:10:16;;;;;;;5.68;3.25;;;15.30;97.80;;;;;;2048077;28;20032;-70
2021/06/14 02:11:18;;;;;;;6.03;3.92;;;15.30;96.70;;;;;;2055812;28;20035;-70
2021/06/14 02:12:19;;;;;;;4.65;3.40;;;15.20;96.60;;;;;;2055171;28;20095;-70
2021/06/14 02:13:20;;;;;;;4.90;3.08;;;15.20;97.10;;;;;;2055638;28;20030;-70
2021/06/14 02:14:26;;;;;;;4.03;3.20;;;15.20;96.40;;;;;;2055541;28;20466;-70
2021/06/14 02:15:27;;;;;;;6.50;3.60;;;15.20;96.60;;;;;;2055962;28;20023;-70
2021/06/14 02:16:29;;;;;;;7.00;3.42;;;15.20;97.60;;;;;;2054974;28;20023;-71
2021/06/14 02:17:31;;;;;;;6.38;3.60;;;15.20;97.90;;;;;;2047103;29;20034;-70
2021/06/14 02:18:32;;;;;;;6.18;3.70;;;15.10;97.90;;;;;;2047106;29;20042;-70
2021/06/14 02:19:33;;;;;;;3.95;3.30;;;15.10;98.10;;;;;;2053584;28;20027;-70
2021/06/14 02:20:33;;;;;;;5.35;3.45;;;15.10;97.60;;;;;;2055525;28;20463;-70
2021/06/14 02:21:35;;;;;;;3.67;3.35;;;15.10;98.10;;;;;;2055292;28;20034;-70
2021/06/14 02:22:36;;;;;;;3.65;3.28;;;15.10;98.30;;;;;;2055596;28;20030;-70
2021/06/14 02:23:37;;;;;;;5.10;3.22;;;15.10;98.00;;;;;;2055901;28;20487;-70
2021/06/14 02:24:38;;;;;;;7.75;3.80;;;15.10;98.50;;;;;;2055296;28;20439;-70
2021/06/14 02:25:39;;;;;;;4.55;3.65;;;15.10;97.90;;;;;;2055647;28;20758;-70
2021/06/14 02:26:42;;;;;;;3.17;2.80;;;15.10;98.80;;;;;;2055586;28;20455;-70
2021/06/14 02:27:42;;;;;;;5.78;3.70;;;15.10;98.10;;;;;;2049565;28;20038;-70
2021/06/14 02:28:44;;;;;;;3.88;3.03;;;15.00;98.50;;;;;;2047465;29;20551;-70
2021/06/14 02:29:45;;;;;;;4.78;3.83;;;15.00;98.40;;;;;;2047631;28;20110;-71
2021/06/14 02:30:46;;;;;;;3.63;3.13;;;15.00;98.30;;;;;;2051350;28;20031;-70
2021/06/14 02:31:46;;;;;;;4.95;3.25;;;15.00;98.00;;;;;;2055229;28;20077;-70
2021/06/14 02:32:48;;;;;;;4.28;3.58;;;15.00;98.00;;;;;;2046875;29;20056;-70
2021/06/14 02:33:49;;;;;;;6.25;3.47;;;15.00;98.30;;;;;;2050427;28;20070;-70
2021/06/14 02:34:50;;;;;;;4.53;3.65;;;15.00;97.40;;;;;;2055334;28;20026;-70
2021/06/14 02:35:52;;;;;;;3.72;3.30;;;15.00;97.90;;;;;;2055588;28;20015;-70
2021/06/14 02:36:54;;;;;;;4.60;3.92;;;15.00;98.20;;;;;;2055433;28;20034;-70
2021/06/14 02:37:59;;;;;;;3.60;3.08;;;14.90;98.20;;;;;;2055589;28;20058;-70
2021/06/14 02:39:06;;;;;;;7.45;3.95;;;15.00;97.50;;;;;;2055540;28;20106;-70
2021/06/14 02:40:08;;;;;;;5.32;3.35;;;14.90;98.40;;;;;;2055786;28;20026;-71
2021/06/14 02:41:09;;;;;;;4.03;3.35;;;14.90;98.30;;;;;;2055246;28;20034;-70
2021/06/14 02:42:10;;;;;;;5.32;3.95;;;14.90;98.10;;;;;;2050035;28;20098;-70
2021/06/14 02:43:10;;;;;;;4.95;3.78;;;14.90;98.60;;;;;;2084319;28;20492;-70
2021/06/14 02:44:12;;;;;;;5.10;3.33;;;14.90;99.20;;;;;;2055855;28;20031;-70
2021/06/14 02:45:14;;;;;;;5.18;3.65;;;14.90;98.10;;;;;;2052009;28;20497;-70
2021/06/14 02:46:15;;;;;;;7.15;4.05;;;14.90;98.00;;;;;;2047576;28;20043;-71
2021/06/14 02:47:17;;;;;;;3.80;3.47;;;14.90;98.90;;;;;;2053892;28;20118;-71
2021/06/14 02:48:19;;;;;;;6.85;3.83;;;14.90;98.80;;;;;;2055778;28;20421;-71
2021/06/14 02:49:21;;;;;;;5.28;4.03;;;14.90;98.90;;;;;;2055362;28;20023;-70
2021/06/14 02:50:23;;;;;;;6.90;3.67;;;14.90;98.80;;;;;;2055513;28;20382;-70
2021/06/14 02:51:24;;;;;;;3.85;3.15;;;14.90;99.10;;;;;;2054201;28;20525;-70
2021/06/14 02:52:26;;;;;;;4.72;3.63;;;14.90;98.50;;;;;;2047256;29;20383;-70
2021/06/14 02:53:28;;;;;;;7.00;3.75;;;14.90;99.30;;;;;;2047341;29;20023;-70
2021/06/14 02:54:37;;;;;;;3.80;3.50;;;14.90;99.20;;;;;;2062810;28;20027;-70
2021/06/14 02:55:48;;;;;;;4.15;3.75;;;14.90;99.60;;;;;;2064191;28;20028;-70
2021/06/14 02:56:54;;;;;;;5.80;4.25;;;14.80;99.50;;;;;;2055594;28;20019;-70
2021/06/14 02:57:58;;;;;;;3.83;3.20;;;14.80;99.40;;;;;;2055434;28;20051;-70
2021/06/14 02:59:01;;;;;;;4.28;3.53;;;14.80;99.10;;;;;;2055667;28;20107;-70
2021/06/14 03:00:06;;;;;;;4.20;3.80;;;14.80;98.80;;;;;;2055284;28;20149;-70
2021/06/14 03:01:09;;;;;;;5.13;3.58;;;14.80;99.80;;;;;;2055116;28;20335;-70
2021/06/14 03:02:10;;;;;;;6.22;3.70;;;14.80;99.90;;;;;;2053885;28;20019;-70
2021/06/14 03:03:10;;;;;;;4.80;3.55;;;14.80;99.90;;;;;;2054357;28;20031;-70
2021/06/14 03:04:12;;;;;;;6.38;3.67;;;14.80;99.60;;;;;;2054315;28;20490;-70
2021/06/14 03:05:13;;;;;;;4.05;3.53;;;14.80;99.90;;;;;;2054058;28;20019;-70
2021/06/14 03:06:16;;;;;;;5.95;3.55;;;14.70;99.90;;;;;;2053587;28;20030;-70
2021/06/14 03:07:22;;;;;;;5.65;3.78;;;14.70;99.90;;;;;;2054467;28;20031;-70
2021/06/14 03:08:24;;;;;;;4.18;3.78;;;14.70;99.90;;;;;;2054082;28;20087;-70
2021/06/14 03:09:27;;;;;;;6.50;4.07;;;14.70;99.90;;;;;;2053551;28;20027;-70
2021/06/14 03:10:30;;;;;;;5.40;3.90;;;14.70;99.90;;;;;;2053617;28;20545;-71
2021/06/14 03:11:31;;;;;;;4.57;3.53;;;14.70;99.90;;;;;;2053245;28;20057;-70
2021/06/14 03:12:32;;;;;;;8.55;3.90;;;14.70;99.90;;;;;;2054200;28;20046;-70
2021/06/14 03:13:33;;;;;;;5.13;4.03;;;14.70;99.90;;;;;;2054347;28;20521;-70
2021/06/14 03:14:36;;;;;;;5.50;3.45;;;14.70;99.90;;;;;;2053343;28;20041;-70
2021/06/14 03:15:37;;;;;;;5.07;3.42;;;14.70;99.90;;;;;;2054271;28;20042;-70
2021/06/14 03:16:38;;;;;;;4.93;4.00;;;14.70;99.90;;;;;;2054225;28;20046;-70
2021/06/14 03:17:42;;;;;;;4.75;3.92;;;14.60;99.90;;;;;;2054313;28;20079;-70
2021/06/14 03:18:43;;;;;;;4.30;3.60;;;14.60;99.90;;;;;;2053961;28;20398;-70
2021/06/14 03:19:46;;;;;;;4.43;3.40;;;14.60;99.90;;;;;;2053216;28;20027;-71
2021/06/14 03:20:47;;;;;;;5.13;3.85;;;14.60;99.90;;;;;;2053509;28;21679;-71
2021/06/14 03:21:48;;;;;;;5.13;3.85;;;14.60;99.90;;;;;;2053843;28;20145;-70
2021/06/14 03:22:49;;;;;;;6.68;4.00;;;14.60;99.90;;;;;;2047923;28;20035;-70
2021/06/14 03:23:51;;;;;;;8.02;4.35;;;14.60;99.90;;;;;;2046237;28;20055;-70
2021/06/14 03:24:51;;;;;;;5.32;3.30;;;14.60;99.90;;;;;;2046029;28;20452;-70
2021/06/14 03:25:52;;;;;;;4.90;3.75;;;14.60;99.90;;;;;;2046186;28;20023;-70
2021/06/14 03:26:53;;;;;;;5.35;3.85;;;14.60;99.90;;;;;;2045986;29;20031;-70
2021/06/14 03:27:55;;;;;;;4.53;3.72;;;14.60;99.90;;;;;;2046744;28;20487;-70
2021/06/14 03:28:56;;;;;;;5.05;3.65;;;14.60;99.90;;;;;;2053560;28;20052;-70
2021/06/14 03:29:58;;;;;;;5.47;3.72;;;14.60;99.90;;;;;;2061491;28;20079;-70
2021/06/14 03:31:00;;;;;;;4.45;3.47;;;14.60;99.90;;;;;;2054396;28;20109;-71
2021/06/14 03:32:03;;;;;;;5.57;4.15;;;14.50;99.90;;;;;;2059462;28;20030;-71
2021/06/14 03:33:06;;;;;;;4.88;3.75;;;14.50;99.90;;;;;;2054443;28;20474;-71
2021/06/14 03:34:07;;;;;;;8.32;4.00;;;14.60;99.90;;;;;;2054130;28;20035;-71
2021/06/14 03:35:12;;;;;;;4.82;3.85;;;14.50;99.90;;;;;;2053952;28;20057;-71
2021/06/14 03:36:15;;;;;;;5.07;3.83;;;14.50;99.90;;;;;;2053468;28;20034;-71
2021/06/14 03:37:15;;;;;;;3.53;3.20;;;14.50;99.90;;;;;;2053308;28;20105;-71
2021/06/14 03:38:16;;;;;;;5.25;4.32;;;14.50;99.90;;;;;;2054332;28;20023;-71
2021/06/14 03:39:17;;;;;;;6.32;4.22;;;14.50;99.90;;;;;;2053318;28;20085;-71
2021/06/14 03:40:19;;;;;;;5.25;3.53;;;14.50;99.90;;;;;;2054988;28;20024;-71
2021/06/14 03:41:20;;;;;;;5.80;3.92;;;14.50;99.90;;;;;;2059832;28;20477;-71
2021/06/14 03:42:22;;;;;;;4.65;4.13;;;14.40;99.90;;;;;;2053172;28;20081;-71
2021/06/14 03:43:23;;;;;;;6.32;3.85;;;14.50;99.90;;;;;;2053247;28;20075;-71
2021/06/14 03:44:25;;;;;;;5.93;3.95;;;14.40;99.90;;;;;;2053141;28;20041;-71
2021/06/14 03:45:26;;;;;;;5.25;3.83;;;14.50;99.90;;;;;;2053434;28;20023;-71
2021/06/14 03:46:26;;;;;;;4.78;3.95;;;14.40;99.90;;;;;;2053513;28;20023;-71
2021/06/14 03:47:27;;;;;;;5.40;4.10;;;14.40;99.90;;;;;;2053999;28;20513;-71
2021/06/14 03:48:28;;;;;;;4.97;3.72;;;14.40;99.90;;;;;;2053890;28;20105;-71
2021/06/14 03:49:28;;;;;;;6.70;4.13;;;14.40;99.90;;;;;;2053668;28;20130;-71
2021/06/14 03:50:29;;;;;;;6.00;4.28;;;14.40;99.90;;;;;;2053834;28;20022;-71
2021/06/14 03:51:31;;;;;;;5.00;3.83;;;14.40;99.90;;;;;;2053696;28;20448;-71
2021/06/14 03:52:31;;;;;;;4.57;3.90;;;14.40;99.90;;;;;;2053797;28;20031;-71
2021/06/14 03:53:33;;;;;;;7.53;4.20;;;14.40;99.90;;;;;;2054129;28;20030;-71
2021/06/14 03:54:34;;;;;;;5.90;4.18;;;14.40;99.90;;;;;;2053517;28;20027;-71
2021/06/14 03:55:34;;;;;;;5.72;4.38;;;14.40;99.90;;;;;;2054064;28;20015;-71
2021/06/14 03:56:36;;;;;;;4.93;4.05;;;14.50;99.90;;;;;;2053891;28;20031;-71
2021/06/14 03:57:38;;;;;;;5.85;4.07;;;14.50;99.90;;;;;;2053763;28;20078;-71
2021/06/14 03:58:38;;;;;;;4.93;3.90;;;14.50;99.90;;;;;;2053977;28;20348;-71
2021/06/14 03:59:39;;;;;;;6.47;4.07;;;14.50;99.90;;;;;;2052950;28;20061;-71
2021/06/14 04:00:39;;;;;;;7.93;4.63;;;14.60;99.90;;;;;;2047131;28;20063;-71
2021/06/14 04:01:40;;;;;;;6.45;4.07;;;14.60;99.90;;;;;;2046792;29;20023;-71
2021/06/14 04:02:41;;;;;;;6.55;4.28;;;14.60;99.90;;;;;;2047388;28;20035;-70
2021/06/14 04:03:44;;;;;;;5.85;4.18;;;14.70;99.90;;;;;;2047432;29;20023;-70
2021/06/14 04:04:48;;;;;;;4.78;3.78;;;14.70;99.90;;;;;;2047086;28;20016;-70
2021/06/14 04:05:49;;;;;;;6.88;3.80;;;14.80;99.90;;;;;;2047073;29;20495;-70
2021/06/14 04:06:50;;;;;;;5.97;3.95;;;14.90;99.90;;;;;;2047085;29;20398;-71
2021/06/14 04:07:50;;;;;;;7.53;4.10;;;14.90;99.90;;;;;;2047528;29;20106;-71
2021/06/14 04:08:51;;;;;;;4.50;3.67;;;15.00;99.90;;;;;;2047478;29;20105;-71
2021/06/14 04:09:52;;;;;;;7.95;3.90;;;15.10;99.90;;;;;;2052176;28;20030;-71
2021/06/14 04:10:53;;;;;;;5.88;4.55;;;15.20;99.90;;;;;;2055255;28;20061;-71
2021/06/14 04:11:54;;;;;;;8.25;3.95;;;15.30;99.90;;;;;;2054560;28;20065;-71
2021/06/14 04:12:55;;;;;;;5.85;4.22;;;15.50;99.90;;;;;;2050784;28;20468;-71
2021/06/14 04:13:55;;;;;;;6.22;3.92;;;15.80;99.90;;;;;;2047216;28;20027;-71
2021/06/14 04:14:56;;;;;;;6.57;4.15;;;16.20;99.90;;;;;;2047141;29;20498;-71
2021/06/14 04:15:57;;;;;;;4.78;4.10;;;16.60;99.90;;;;;;2050608;28;20034;-71
2021/06/14 04:16:57;;;;;;;6.07;4.07;;;16.90;98.60;;;;;;2055197;28;20027;-71
2021/06/14 04:17:58;;;;;;;5.85;4.03;;;17.30;97.60;;;;;;2055456;28;20034;-71
2021/06/14 04:18:58;;;;;;;4.07;3.55;;;17.60;95.90;;;;;;2054936;28;20816;-70
2021/06/14 04:19:59;;;;;;;5.82;3.42;;;17.90;93.90;;;;;;2055148;28;20027;-70
2021/06/14 04:21:00;;;;;;;5.30;3.80;;;18.20;93.60;;;;;;2050310;28;20027;-70
2021/06/14 04:22:00;;;;;;;6.88;4.20;;;18.50;92.10;;;;;;2046003;28;20398;-70
2021/06/14 04:23:01;;;;;;;6.15;4.05;;;18.80;90.60;;;;;;2046490;28;20028;-70
2021/06/14 04:24:02;;;;;;;6.88;4.15;;;19.00;89.70;;;;;;2047400;28;20031;-71
2021/06/14 04:25:04;;;;;;;6.97;4.07;;;19.20;88.90;;;;;;2047083;28;20356;-71
2021/06/14 04:26:05;;;;;;;6.57;4.30;;;19.40;89.00;;;;;;2046939;29;20031;-71
2021/06/14 04:27:06;;;;;;;4.43;3.90;;;19.50;88.90;;;;;;2046997;28;20043;-71
2021/06/14 04:28:07;;;;;;;6.95;3.55;;;19.50;89.80;;;;;;2046955;28;20483;-71
2021/06/14 04:29:08;;;;;;;7.75;3.95;;;19.50;88.20;;;;;;2047062;29;20034;-71
2021/06/14 04:30:09;;;;;;;4.93;3.03;;;19.40;89.50;;;;;;2053852;28;20275;-71
2021/06/14 04:31:10;;;;;;;3.33;3.05;;;19.40;88.20;;;;;;2047145;29;20041;-71
2021/06/14 04:32:10;;;;;;;6.22;3.85;;;19.30;90.80;;;;;;2049843;28;20023;-71
2021/06/14 04:33:11;;;;;;;5.72;4.05;;;19.30;91.30;;;;;;2055815;28;20023;-71
2021/06/14 04:34:11;;;;;;;5.07;3.85;;;19.20;91.80;;;;;;2057406;28;20522;-71
2021/06/14 04:35:12;;;;;;;5.45;3.53;;;19.20;92.30;;;;;;2062703;28;20101;-71
2021/06/14 04:36:13;;;;;;;7.43;3.53;;;19.20;92.10;;;;;;2063283;28;20083;-71
2021/06/14 04:37:13;;;;;;;5.30;3.65;;;19.20;92.90;;;;;;2058369;28;20513;-71
2021/06/14 04:38:14;;;;;;;5.13;3.85;;;19.20;92.90;;;;;;2055256;28;20051;-71
2021/06/14 04:39:14;;;;;;;3.80;3.08;;;19.20;92.90;;;;;;2055173;28;20023;-71
2021/06/14 04:40:15;;;;;;;5.80;3.63;;;19.30;93.30;;;;;;2055233;28;20051;-71
2021/06/14 04:41:16;;;;;;;4.28;3.90;;;19.30;93.60;;;;;;2057641;28;20062;-71
2021/06/14 04:42:17;;;;;;;4.65;3.22;;;19.40;93.50;;;;;;2055810;28;20015;-71
2021/06/14 04:43:17;;;;;;;4.95;3.22;;;19.40;93.30;;;;;;2059347;28;20027;-71
2021/06/14 04:44:18;;;;;;;8.15;3.33;;;19.50;93.20;;;;;;2075236;28;20038;-71
2021/06/14 04:45:18;;;;;;;5.28;3.42;;;19.50;93.80;;;;;;2061456;28;20110;-71
2021/06/14 04:46:19;;;;;;;4.85;2.97;;;19.60;94.30;;;;;;2061502;28;20365;-71
2021/06/14 04:47:20;;;;;;;4.50;3.50;;;19.70;94.30;;;;;;2067879;28;20029;-71
2021/06/14 04:48:20;;;;;;;3.33;3.03;;;19.70;94.50;;;;;;2061020;28;20854;-71
2021/06/14 04:49:21;;;;;;;4.55;3.17;;;19.80;94.20;;;;;;2055441;28;20443;-71
2021/06/14 04:50:22;;;;;;;4.32;2.78;;;19.90;93.90;;;;;;2061221;28;20027;-71
2021/06/14 04:51:22;;;;;;;3.75;3.05;;;20.00;93.60;;;;;;2061101;28;20027;-71
2021/06/14 04:52:23;;;;;;;5.22;2.90;;;20.00;93.10;;;;;;2054634;28;20026;-71
2021/06/14 04:53:24;;;;;;;3.60;3.10;;;20.10;92.30;;;;;;2057223;28;20142;-71
2021/06/14 04:54:24;;;;;;;5.25;3.40;;;20.20;91.00;;;;;;2059126;28;20403;-71
2021/06/14 04:55:25;;;;;;;7.30;3.85;;;20.30;91.10;;;;;;2056496;28;20382;-71
2021/06/14 04:56:26;;;;;;;4.80;2.75;;;20.30;90.90;;;;;;2058840;28;20069;-71
2021/06/14 04:57:26;;;;;;;7.40;3.45;;;20.40;90.80;;;;;;2061697;28;20020;-71
2021/06/14 04:58:27;;;;;;;3.83;3.15;;;20.50;90.40;;;;;;2061466;28;20408;-71
2021/06/14 04:59:27;;;;;;;5.88;3.25;;;20.60;90.00;;;;;;2055373;28;20018;-71
2021/06/14 05:00:28;;;;;;;6.63;3.38;;;20.70;89.40;;;;;;2055389;28;20023;-71
2021/06/14 05:01:29;;;;;;;5.32;3.00;;;20.70;90.20;;;;;;2055442;28;20019;-71
2021/06/14 05:02:30;;;;;;;4.18;3.08;;;20.80;90.30;;;;;;2055536;28;20023;-71
2021/06/14 05:03:30;;;;;;;5.93;3.47;;;20.90;89.90;;;;;;2056021;28;20022;-71
2021/06/14 05:04:31;;;;;;;3.22;2.85;;;21.00;87.70;;;;;;2057085;28;20018;-71
2021/06/14 05:05:32;;;;;;;5.28;3.28;;;21.10;87.30;;;;;;2057990;28;20131;-71
2021/06/14 05:06:33;;;;;;;4.68;3.50;;;21.10;87.50;;;;;;2060538;28;20038;-71
2021/06/14 05:07:33;;;;;;;6.20;3.33;;;21.20;86.10;;;;;;2076962;28;20035;-71
2021/06/14 05:08:34;;;;;;;5.18;3.08;;;21.30;85.90;;;;;;2071081;28;20016;-71
2021/06/14 05:09:35;;;;;;;4.68;3.10;;;21.40;87.10;;;;;;2060533;28;20021;-71
2021/06/14 05:10:35;;;;;;;5.35;3.42;;;21.50;84.10;;;;;;2060785;28;20102;-71
2021/06/14 05:11:36;;;;;;;6.25;3.35;;;21.50;84.30;;;;;;2060182;28;20033;-71
2021/06/14 05:12:36;;;;;;;4.53;3.53;;;21.60;85.60;;;;;;2059970;28;20027;-71
2021/06/14 05:13:37;;;;;;;4.72;3.20;;;21.70;84.50;;;;;;2061187;28;20026;-71
2021/06/14 05:14:37;;;;;;;4.18;3.40;;;21.80;81.80;;;;;;2055024;28;20519;-71
2021/06/14 05:15:38;;;;;;;5.30;3.47;;;21.80;78.40;;;;;;2055731;28;20019;-71
2021/06/14 05:16:39;;;;;;;6.10;3.13;;;21.90;78.30;;;;;;2055471;28;20152;-71
2021/06/14 05:17:40;;;;;;;4.72;3.00;;;21.90;77.60;;;;;;2056297;28;20080;-71
2021/06/14 05:18:40;;;;;;;6.35;3.45;;;22.00;78.40;;;;;;2067854;28;20058;-71
2021/06/14 05:19:41;;;;;;;5.82;3.53;;;22.10;76.70;;;;;;2067893;28;20084;-71
2021/06/14 05:20:41;;;;;;;3.67;2.95;;;22.10;75.60;;;;;;2068982;28;20058;-71
2021/06/14 05:21:42;;;;;;;6.65;3.28;;;22.20;75.60;;;;;;2068678;28;20040;-71
2021/06/14 05:22:43;;;;;;;8.77;3.63;;;22.20;74.40;;;;;;2061675;28;20019;-71
2021/06/14 05:23:44;;;;;;;4.07;3.08;;;22.30;73.90;;;;;;2061323;28;20026;-71
2021/06/14 05:24:44;;;;;;;6.13;3.38;;;22.40;73.40;;;;;;2061096;28;20027;-71